createdAt,value
2022-11-22T00:00:00.000Z,4.63
2022-11-22T00:15:00.000Z,4.64
2022-11-22T00:30:00.000Z,4.6
2022-11-22T00:45:00.000Z,4.74
2022-11-22T01:00:00.000Z,4.65
2022-11-22T01:15:00.000Z,4.37
2022-11-22T01:30:00.000Z,4.24
2022-11-22T01:45:00.000Z,4.59
2022-11-22T02:00:00.000Z,4.73
2022-11-22T02:15:00.000Z,3.74
2022-11-22T02:30:00.000Z,3
2022-11-22T02:45:00.000Z,2.69
2022-11-22T03:15:00.000Z,2.76
2022-11-22T03:15:00.000Z,2.9
2022-11-22T03:30:00.000Z,3.24
2022-11-22T03:45:00.000Z,3.32
2022-11-22T04:00:00.000Z,3.17
2022-11-22T04:15:00.000Z,3.44
2022-11-22T04:30:00.000Z,3.6
2022-11-22T04:45:00.000Z,3.49
2022-11-22T05:00:00.000Z,3.42
2022-11-22T05:15:00.000Z,3.36
2022-11-22T05:30:00.000Z,3.53
2022-11-22T05:45:00.000Z,4.09
2022-11-22T06:00:00.000Z,4.5
2022-11-22T06:15:00.000Z,4.44
2022-11-22T06:30:00.000Z,4.64
2022-11-22T06:45:00.000Z,4.8
2022-11-22T07:00:00.000Z,5.14
2022-11-22T07:15:00.000Z,5.2
2022-11-22T07:30:00.000Z,5.46
2022-11-22T07:45:00.000Z,5.58
2022-11-22T08:00:00.000Z,5.71
2022-11-22T08:15:00.000Z,5.72
2022-11-22T08:30:00.000Z,5.82
2022-11-22T08:45:00.000Z,6.2
2022-11-22T09:00:00.000Z,6.27
2022-11-22T09:15:00.000Z,5.95
2022-11-22T09:30:00.000Z,6.06
2022-11-22T09:45:00.000Z,5.97
2022-11-22T10:00:00.000Z,5.85
2022-11-22T10:15:00.000Z,5.87
2022-11-22T10:30:00.000Z,6.45
2022-11-22T10:45:00.000Z,6.75
2022-11-22T11:00:00.000Z,6.92
2022-11-22T11:15:00.000Z,6.99
2022-11-22T11:30:00.000Z,7.01
2022-11-22T11:45:00.000Z,7.12
2022-11-22T12:15:00.000Z,7.08
2022-11-22T12:15:00.000Z,7.1
2022-11-22T12:30:00.000Z,7.06
2022-11-22T12:45:00.000Z,6.94
2022-11-22T13:00:00.000Z,6.96
2022-11-22T13:15:00.000Z,6.85
2022-11-22T13:45:00.000Z,6.47
2022-11-22T13:45:00.000Z,6.46
2022-11-22T14:00:00.000Z,6.34
2022-11-22T14:15:00.000Z,6.5
2022-11-22T14:30:00.000Z,6.62
2022-11-22T14:45:00.000Z,6.39
2022-11-22T15:45:00.000Z,5.78
2022-11-22T16:00:00.000Z,5.98
2022-11-22T16:15:00.000Z,6.09
2022-11-22T16:30:00.000Z,5.99
2022-11-22T16:45:00.000Z,5.95
2022-11-22T17:00:00.000Z,5.86
2022-11-22T17:15:00.000Z,5.79
2022-11-22T17:30:00.000Z,5.86
2022-11-22T17:45:00.000Z,5.84
2022-11-22T18:00:00.000Z,5.89
2022-11-22T18:15:00.000Z,6.02
2022-11-22T18:30:00.000Z,5.92
2022-11-22T18:45:00.000Z,5.75
2022-11-22T19:00:00.000Z,5.62
2022-11-22T19:15:00.000Z,5.75
2022-11-22T19:30:00.000Z,5.63
2022-11-22T19:45:00.000Z,5.73
2022-11-22T20:00:00.000Z,5.69
2022-11-22T20:15:00.000Z,5.7
2022-11-22T20:30:00.000Z,5.76
2022-11-22T20:45:00.000Z,5.82
2022-11-22T21:00:00.000Z,5.87
2022-11-22T21:15:00.000Z,5.81
2022-11-22T21:30:00.000Z,5.85
2022-11-22T21:45:00.000Z,5.99
2022-11-22T22:00:00.000Z,6.14
2022-11-22T22:15:00.000Z,6.26
2022-11-22T22:30:00.000Z,6.07
2022-11-22T22:45:00.000Z,5.98
2022-11-22T23:00:00.000Z,6.06
2022-11-22T23:15:00.000Z,6.08
2022-11-22T23:30:00.000Z,6.18
2022-11-22T23:45:00.000Z,6.09
